Observations for FAIRFORD RAF, United Kingdom (EGVA)

EGVA 211728Z AUTO 24008KT M -RA BKN005 OVC009 08/08 A2970 RMK AO2 CIG 005V007 BKN V OVC SLP064 RVRNO $
EGVA 211733Z AUTO 24009KT M -RA BKN006 OVC010 09/08 A2970 RMK AO2 CIG 005V007 BKN V OVC SLP064 RVRNO $
EGVA 211738Z AUTO 24010KT M -RA SCT005 BKN010 09/08 A2969 RMK AO2 CIG 006V010 BKN V OVC SLP060 RVRNO $
EGVA 211708Z AUTO 24006KT M -RA OVC006 07/06 A2970 RMK AO2 SLP064 RVRNO $
EGVA 211656Z AUTO 24004KT M -RA OVC007 07/07 A2970 RMK AO2 SLP064 P0012 T00720065 RVRNO $   
EGVA 211626Z AUTO 22007KT M -RA OVC006 07/07 A2970 RMK AO2 CIG 005 RWY09 SLP064RVRNO $
EGVA 211606Z AUTO 00000KT M RA OVC005 05/04 A2971 RMK AO2 SLP068 RVRNO $
EGVA 211621Z AUTO 22007KT M -RA OVC006 07/06 A2970 RMK AO2 VIS 4400 RWY09 SLP064 RVRNO $
EGVA 211556Z AUTO 00000KT M RA OVC004 05/04 A2972 RMK AO2 SLP071 P0015 T00490042 RVRNO $
EGVA 211536Z AUTO 00000KT M RA OVC004 05/04 A2973 RMK AO2 VIS 4000 RWY09 SLP075RVRNO $
EGVA 211541Z AUTO 00000KT M +RA OVC004 05/04 A2972 RMK AO2 SLP071 RVRNO $
EGVA 211456Z AUTO 11004KT M -RA OVC005 05/04 A2974 RMK AO2 RAE42RAB46 SLP078 P0003 60016 T00450036 57038 RVRNO $
EGVA 211436Z AUTO 09004KT M -RA OVC005 04/03 A2975 RMK AO2 SLP081 RVRNO $
EGVA 211442Z AUTO 10004KT M M OVC005 04/03 A2974 RMK AO2 RAE42 SLP078 RVRNO $
EGVA 211446Z AUTO 10003KT M -RA OVC005 04/03 A2975 RMK AO2 RAE42RAB46 SLP081 RVRNO $
EGVA 211356Z AUTO 11005KT M -RA OVC006 03/02 A2977 RMK AO2 SLP089 P0005 T00330024 RVRNO $   
EGVA 211331Z AUTO 08004KT M -RA OVC006 03/02 A2979 RMK AO2 SLP095 RVRNO $
EGVA 211311Z AUTO 11006KT M -RA OVC005 02/01 A2980 RMK AO2 SLP099 RVRNO $
EGVA 211256Z AUTO 12007KT M -RA OVC006 02/01 A2980 RMK AO2 PRESFR SLP099 P0008 T00230013 RVRNO $
EGVA 211211Z AUTO 12007KT M -RA OVC006 02/01 A2985 RMK AO2 SLP116 RVRNO $
EGVA 211156Z AUTO 12008KT M -RA OVC005 02/01 A2985 RMK AO2 SLP116 P0006 60032 70038 T00190009 10019 20004 57025 RVRNO $ 
EGVA 211056Z AUTO 13009KT M -RA OVC005 02/01 A2988 RMK AO2 SLP126 P0006 T00150005 RVRNO $   
EGVA 211017Z AUTO 11008KT M -RA OVC006 01/00 A2989 RMK AO2 SLP130 RVRNO $
EGVA 210956Z AUTO 12007KT M -RA OVC007 01/00 A2989 RMK AO2 UPE11RAB11 OVC V BKN SLP130 P0008 T00071003 RVRNO $  
EGVA 210931Z AUTO 11006KT M -RA BKN007 OVC021 01/00 A2991 RMK AO2 UPE11RAB11 CIG 007V021 CIG 005 RWY09 SLP137 RVRNO $
EGVA 210916Z AUTO 10006KT M -RA SCT013 OVC021 01/00 A2991 RMK AO2 UPE11RAB11 CIG 015V021 CIG 005 RWY09 SLP137 RVRNO $
EGVA 210856Z AUTO 10006KT M -UP OVC017 01/00 A2992 RMK AO2 RAE40UPB40 CIG 007 RWY09 SLP140 P0006 60012 T00051005 58002 RVRNO $  
EGVA 210756Z AUTO 10005KT M -RA OVC016 01/00 A2993 RMK AO2 UPE03RAB03 SLP143 P0006 T00101002 RVRNO $
EGVA 210706Z AUTO 00000KT M -RA SCT021 SCT030 BKN045 02/01 A2994 RMK AO2 UPE03RAB03 SLP146 RVRNO $
EGVA 210711Z AUTO 00000KT M -RA BKN017 BKN029 02/00 A2994 RMK AO2 UPE03RAB03 CIG 017V045 BKN017 V SCT SLP146 RVRNO $
EGVA 210656Z AUTO 00000KT M -UP FEW027 SCT032 SCT046 02/01 A2993 RMK AO2 UPE11UPB37E49UPB51 SLP143 P0000 T00170005 RVRNO $  
EGVA 210631Z AUTO 13004KT M M FEW036 SCT047 02/01 A2992 RMK AO2 UPE11 SLP140 RVRNO $
EGVA 210637Z AUTO 13004KT M -UP FEW036 SCT047 02/01 A2992 RMK AO2 UPE11UPB37 SLP140 RVRNO $
EGVA 210642Z AUTO 13003KT M -UP FEW036 BKN047 02/01 A2992 RMK AO2 UPE11UPB37 SLP140 RVRNO $
EGVA 210611Z AUTO 13003KT M M FEW045 02/01 A2993 RMK AO2 UPE11 SLP143 RVRNO $
EGVA 210621Z AUTO 14004KT M M BKN048 02/01 A2993 RMK AO2 UPE11 SLP143 RVRNO $
EGVA 210649Z AUTO 13003KT M M FEW026 SCT032 BKN045 02/01 A2992 RMK AO2 UPE11UPB37E49 SLP140 RVRNO $
EGVA 210651Z AUTO 13003KT M -UP FEW026 SCT032 BKN045 02/01 A2993 RMK AO2 UPE11UPB37E49UPB51 SLP143 RVRNO $
EGVA 210556Z AUTO 13003KT M -UP CLR 02/01 A2993 RMK AO2 UPB41 SLP143 P0000 60000 T00150005 10019 20014 53000 RVRNO $
EGVA 210541Z AUTO 00000KT M -UP CLR 01/00 A2993 RMK AO2 UPB41 SLP143 RVRNO $
EGVA 210456Z AUTO 00000KT M M FEW009 BKN070 01/00 A2994 RMK AO2 SLP146 T00140002 RVRNO $
EGVA 210441Z AUTO 00000KT M M SCT009 BKN075 02/00 A2995 RMK AO2 SLP150 RVRNO $
EGVA 210411Z AUTO 00000KT M M OVC008 02/00 A2993 RMK AO2 CIG 007 RWY09 SLP143 RVRNO $
EGVA 210356Z AUTO 00000KT M M OVC007 02/00 A2992 RMK AO2 SLP139 T00160004 RVRNO $   
EGVA 210256Z AUTO 00000KT M M OVC007 02/00 A2993 RMK AO2 SLP143 T00160003 51015 RVRNO $ 
EGVA 210226Z AUTO 00000KT M M OVC007 02/00 A2993 RMK AO2 SLP143 RVRNO $
EGVA 210156Z AUTO 00000KT M M OVC008 02/00 A2992 RMK AO2 SLP139 T00190003 RVRNO $   
EGVA 210126Z AUTO 27003KT M M OVC009 01/00 A2991 RMK AO2 SLP136 RVRNO $
EGVA 210056Z AUTO 31003KT M M OVC010 02/00 A2992 RMK AO2 SLP139 T00190003 RVRNO $   
EGVA 210041Z AUTO 00000KT M M OVC009 02/00 A2991 RMK AO2 SLP136 RVRNO $
EGVA 210001Z AUTO 00000KT M M OVC010 02/00 A2989 RMK AO2 SLP129 RVRNO $
EGVA 202356Z AUTO 00000KT M M OVC009 02/00 A2988 RMK AO2 SLP126 T00171001 10026 20009 400460009 52039 RVRNO $   
EGVA 202256Z AUTO 22004KT M M OVC009 01/M01 A2985 RMK AO2 SLP115 T00091006 RVRNO $  
EGVA 202211Z AUTO 00000KT M M BKN009 01/00 A2981 RMK AO2 BKN V SCT SLP102 RVRNO$
EGVA 202156Z AUTO 00000KT M M FEW010 01/00 A2981 RMK AO2 SLP102 T00141001 RVRNO $   
EGVA 202111Z AUTO 35005KT M M BKN008 02/00 A2978 RMK AO2 SLP092 RVRNO $
EGVA 202121Z AUTO 36004KT M M SCT008 02/00 A2979 RMK AO2 SLP095 RVRNO $
EGVA 202056Z AUTO 01005KT M M BKN007 02/01 A2977 RMK AO2 BKN V OVC SLP089 T00200005 52054 RVRNO $   
EGVA 202036Z AUTO 02009KT M M OVC007 02/01 A2976 RMK AO2 SLP085 RVRNO $
EGVA 201956Z AUTO 36004KT M M OVC006 02/01 A2972 RMK AO2 SLP072 T00230010 RVRNO $   
EGVA 201927Z AUTO 02010KT M M OVC006 02/01 A2970 RMK AO2 SLP065 RVRNO $
EGVA 201916Z AUTO 02011KT M M OVC007 02/01 A2969 RMK AO2 PRESRR SLP062 RVRNO $
EGVA 201901Z AUTO 02009KT M M OVC008 02/01 A2967 RMK AO2 CIG 007 RWY09 SLP055 RVRNO $
EGVA 201856Z AUTO 02007KT M M OVC007 02/01 A2966 RMK AO2 SLP051 T00240009 RVRNO $   
EGVA 201841Z AUTO 02009KT M M OVC007 02/01 A2965 RMK AO2 SLP048 RVRNO $
EGVA 201816Z AUTO 02008KT M M OVC008 03/01 A2963 RMK AO2 CIG 007 RWY09 SLP041 RVRNO $
EGVA 201756Z AUTO 03008KT M M BKN007 OVC022 03/01 A2961 RMK AO2 RAB16E27 BKN V OVC PRESRR SLP034 P0001 60006 T00250013 10046 20025 52050 RVRNO $
EGVA 201727Z AUTO 03008KT M M OVC006 03/02 A2958 RMK AO2 RAB16E27 SLP024 RVRNO $
EGVA 201742Z AUTO 03009KT M M OVC007 03/02 A2959 RMK AO2 RAB16E27 SLP027 RVRNO $
EGVA 201709Z AUTO 04006KT M M BKN006 OVC021 03/02 A2956 RMK AO2 SLP017 RVRNO $
EGVA 201716Z AUTO 03006KT M -RA OVC006 03/02 A2957 RMK AO2 RAB16 OVC V BKN SLP020 RVRNO $